Time;durP1;ratioP1;P1;durP2;ratioP2;P2;SDS_P1;SDS_P2;PMS_P1;PMS_P2;Temp;Humidity;BMP_temperature;BMP_pressure;BME280_temperature;BME280_humidity;BME280_pressure;Samples;Min_cycle;Max_cycle;Signal;HPM_P1;HPM_P2
2023/09/28 00:02:47;;;;;;;0.20;0.10;;;;;;;;;;5026742;28;20045;-83
2023/09/28 00:05:14;;;;;;;0.32;0.25;;;;;;;;;;5031057;28;20132;-87
2023/09/28 00:07:40;;;;;;;0.57;0.43;;;;;;;;;;5028691;28;20049;-82
2023/09/28 00:10:08;;;;;;;0.20;0.10;;;;;;;;;;5027984;28;20405;-84
2023/09/28 00:12:34;;;;;;;0.20;0.10;;;;;;;;;;5027785;28;20128;-86
2023/09/28 00:15:00;;;;;;;0.20;0.00;;;;;;;;;;5026835;28;20041;-84
2023/09/28 00:17:26;;;;;;;0.20;0.10;;;;;;;;;;5017111;28;20057;-85
2023/09/28 00:19:52;;;;;;;0.30;0.20;;;;;;;;;;5028533;28;20512;-85
2023/09/28 00:22:18;;;;;;;0.28;0.25;;;;;;;;;;5009889;28;20037;-85
2023/09/28 00:24:44;;;;;;;0.20;0.05;;;;;;;;;;5011515;28;20108;-85
2023/09/28 00:27:10;;;;;;;0.30;0.10;;;;;;;;;;5027257;28;20037;-84
2023/09/28 00:29:37;;;;;;;0.65;0.20;;;;;;;;;;5026283;28;20049;-85
2023/09/28 00:32:03;;;;;;;0.30;0.20;;;;;;;;;;5010992;28;20045;-86
2023/09/28 00:34:29;;;;;;;0.20;0.17;;;;;;;;;;5024681;28;20045;-86
2023/09/28 00:36:55;;;;;;;0.20;0.17;;;;;;;;;;5011070;28;20045;-85
2023/09/28 00:39:22;;;;;;;0.30;0.20;;;;;;;;;;5008194;28;20075;-82
2023/09/28 00:41:49;;;;;;;0.20;0.10;;;;;;;;;;5008678;28;20034;-84
2023/09/28 00:44:15;;;;;;;0.30;0.15;;;;;;;;;;5011393;28;20067;-85
2023/09/28 00:46:42;;;;;;;0.20;0.10;;;;;;;;;;5024760;28;20045;-85
2023/09/28 00:49:10;;;;;;;0.88;0.43;;;;;;;;;;5018593;28;20507;-85
2023/09/28 00:51:39;;;;;;;0.20;0.10;;;;;;;;;;5001879;28;20472;-84
2023/09/28 00:54:11;;;;;;;0.20;0.10;;;;;;;;;;5022523;28;20037;-87
2023/09/28 00:56:37;;;;;;;0.25;0.20;;;;;;;;;;5004238;28;20041;-84
2023/09/28 00:59:04;;;;;;;0.20;0.17;;;;;;;;;;5009506;28;20033;-86
2023/09/28 01:01:31;;;;;;;0.30;0.20;;;;;;;;;;5024710;28;20117;-86
2023/09/28 01:04:00;;;;;;;0.30;0.17;;;;;;;;;;5006008;28;20065;-84
2023/09/28 01:06:26;;;;;;;0.40;0.20;;;;;;;;;;5024765;28;20545;-85
2023/09/28 01:08:52;;;;;;;0.47;0.15;;;;;;;;;;5024937;28;20030;-86
2023/09/28 01:11:20;;;;;;;0.35;0.32;;;;;;;;;;5024737;28;20087;-85
2023/09/28 01:13:46;;;;;;;0.20;0.17;;;;;;;;;;5025042;28;20106;-85
2023/09/28 01:16:13;;;;;;;0.20;0.00;;;;;;;;;;5019693;28;20048;-84
2023/09/28 01:18:40;;;;;;;0.20;0.10;;;;;;;;;;5025857;28;20052;-84
2023/09/28 01:21:06;;;;;;;0.20;0.10;;;;;;;;;;5010040;28;20033;-85
2023/09/28 01:23:32;;;;;;;0.20;0.20;;;;;;;;;;5025099;28;20041;-84
2023/09/28 01:25:58;;;;;;;2.15;0.55;;;;;;;;;;5030670;28;20049;-85
2023/09/28 01:28:25;;;;;;;0.85;0.40;;;;;;;;;;5028279;28;20092;-85
2023/09/28 01:30:51;;;;;;;0.30;0.20;;;;;;;;;;5030752;28;20061;-83
2023/09/28 01:33:17;;;;;;;0.43;0.10;;;;;;;;;;5030711;28;20049;-86
2023/09/28 01:35:43;;;;;;;0.20;0.10;;;;;;;;;;5026915;28;20135;-85
2023/09/28 01:38:24;;;;;;;0.20;0.10;;;;;;;;;;5015252;28;20042;-87
2023/09/28 01:40:50;;;;;;;0.20;0.10;;;;;;;;;;5014412;28;20030;-85
2023/09/28 01:43:17;;;;;;;0.20;0.20;;;;;;;;;;5023426;28;20105;-87
2023/09/28 01:45:44;;;;;;;0.30;0.30;;;;;;;;;;5030346;28;20064;-86
2023/09/28 01:48:10;;;;;;;0.20;0.20;;;;;;;;;;5013339;28;20076;-84
2023/09/28 01:50:36;;;;;;;0.25;0.15;;;;;;;;;;5018742;28;20115;-85
2023/09/28 01:53:02;;;;;;;0.63;0.63;;;;;;;;;;5026162;28;20045;-88
2023/09/28 01:55:34;;;;;;;0.20;0.10;;;;;;;;;;5026282;28;20130;-87
2023/09/28 01:58:02;;;;;;;0.20;0.10;;;;;;;;;;5029103;28;20052;-83
2023/09/28 02:00:28;;;;;;;0.20;0.10;;;;;;;;;;5006275;28;20064;-85
2023/09/28 02:02:58;;;;;;;0.20;0.20;;;;;;;;;;5013618;28;20053;-85
2023/09/28 02:05:32;;;;;;;0.20;0.20;;;;;;;;;;5011660;28;20041;-83
2023/09/28 02:07:58;;;;;;;0.28;0.28;;;;;;;;;;5014826;28;20060;-86
2023/09/28 02:10:24;;;;;;;0.20;0.10;;;;;;;;;;5027428;28;20049;-83
2023/09/28 02:12:53;;;;;;;0.20;0.10;;;;;;;;;;5012166;28;20049;-84
2023/09/28 02:15:19;;;;;;;0.57;0.50;;;;;;;;;;5013415;28;20042;-86
2023/09/28 02:17:45;;;;;;;0.20;0.20;;;;;;;;;;5012045;28;20128;-86
2023/09/28 02:20:15;;;;;;;0.20;0.10;;;;;;;;;;5029954;28;20041;-87
2023/09/28 02:22:46;;;;;;;0.43;0.40;;;;;;;;;;5028622;28;20042;-86
2023/09/28 02:25:15;;;;;;;0.20;0.10;;;;;;;;;;5012793;28;20405;-83
2023/09/28 02:27:41;;;;;;;0.25;0.13;;;;;;;;;;5025188;28;20053;-84
2023/09/28 02:30:09;;;;;;;0.57;0.57;;;;;;;;;;5031464;28;20048;-88
2023/09/28 02:32:36;;;;;;;0.50;0.50;;;;;;;;;;5015313;28;20065;-83
2023/09/28 02:35:02;;;;;;;0.20;0.20;;;;;;;;;;5010734;28;20494;-86
2023/09/28 02:37:28;;;;;;;0.40;0.30;;;;;;;;;;5011621;28;20102;-88
2023/09/28 02:39:54;;;;;;;0.25;0.20;;;;;;;;;;5013396;28;20041;-84
2023/09/28 02:42:20;;;;;;;0.50;0.50;;;;;;;;;;5019741;28;20044;-85
2023/09/28 02:44:46;;;;;;;0.20;0.10;;;;;;;;;;5031989;28;20048;-92
2023/09/28 02:47:13;;;;;;;4.82;0.22;;;;;;;;;;5012536;28;20118;-86
2023/09/28 02:49:39;;;;;;;0.20;0.10;;;;;;;;;;5030944;28;20079;-86
2023/09/28 02:52:06;;;;;;;1.85;0.85;;;;;;;;;;5009960;28;20521;-83
2023/09/28 02:54:32;;;;;;;0.20;0.10;;;;;;;;;;5016933;28;20095;-86
2023/09/28 02:56:59;;;;;;;0.30;0.30;;;;;;;;;;5027293;28;20037;-85
2023/09/28 02:59:28;;;;;;;0.73;0.52;;;;;;;;;;5050507;23;20099;-82
2023/09/28 03:02:02;;;;;;;0.20;0.10;;;;;;;;;;4969400;28;20043;-85
2023/09/28 03:04:33;;;;;;;0.30;0.25;;;;;;;;;;4973061;28;20388;-87
2023/09/28 03:07:00;;;;;;;0.38;0.38;;;;;;;;;;4975203;28;20576;-84
2023/09/28 03:09:29;;;;;;;0.20;0.10;;;;;;;;;;4974747;28;20133;-84
2023/09/28 03:11:55;;;;;;;0.63;0.55;;;;;;;;;;4981281;28;20034;-82
2023/09/28 03:14:21;;;;;;;0.20;0.00;;;;;;;;;;4964602;28;20047;-84
2023/09/28 03:16:48;;;;;;;0.20;0.10;;;;;;;;;;4977078;28;20042;-83
2023/09/28 03:19:14;;;;;;;0.22;0.20;;;;;;;;;;4958860;28;20516;-83
2023/09/28 03:21:41;;;;;;;1.27;0.80;;;;;;;;;;4970967;28;20048;-81
2023/09/28 03:24:11;;;;;;;0.20;0.13;;;;;;;;;;4959710;28;20053;-82
2023/09/28 03:26:37;;;;;;;0.57;0.35;;;;;;;;;;4953609;28;21074;-82
2023/09/28 03:29:04;;;;;;;0.20;0.10;;;;;;;;;;4967067;28;20042;-83
2023/09/28 03:31:32;;;;;;;0.20;0.10;;;;;;;;;;4956341;28;20034;-82
2023/09/28 03:33:59;;;;;;;0.55;0.38;;;;;;;;;;4965770;28;20045;-81
2023/09/28 03:36:30;;;;;;;0.20;0.10;;;;;;;;;;4967571;28;20035;-81
2023/09/28 03:38:56;;;;;;;0.30;0.30;;;;;;;;;;4951837;28;20046;-81
2023/09/28 03:41:23;;;;;;;0.30;0.30;;;;;;;;;;4968409;28;20034;-83
2023/09/28 03:43:49;;;;;;;0.20;0.10;;;;;;;;;;4966535;28;20045;-82
2023/09/28 03:46:19;;;;;;;0.20;0.10;;;;;;;;;;4955195;28;20173;-83
2023/09/28 03:48:45;;;;;;;0.85;0.60;;;;;;;;;;4970229;28;20042;-85
2023/09/28 03:51:11;;;;;;;0.50;0.32;;;;;;;;;;4952156;28;20052;-83
2023/09/28 03:53:41;;;;;;;0.30;0.17;;;;;;;;;;4964985;28;20046;-82
2023/09/28 03:56:07;;;;;;;0.20;0.05;;;;;;;;;;4964540;28;20665;-83
2023/09/28 03:58:34;;;;;;;0.30;0.30;;;;;;;;;;4964706;28;20510;-83
2023/09/28 04:01:03;;;;;;;0.73;0.73;;;;;;;;;;4947293;28;20125;-83
2023/09/28 04:03:29;;;;;;;0.20;0.08;;;;;;;;;;4967383;28;20046;-82
2023/09/28 04:05:55;;;;;;;0.30;0.30;;;;;;;;;;4964598;28;20046;-85
2023/09/28 04:08:22;;;;;;;0.20;0.10;;;;;;;;;;4950850;28;20050;-85
2023/09/28 04:10:50;;;;;;;0.50;0.47;;;;;;;;;;4972501;28;20137;-83
2023/09/28 04:16:08;;;;;;;0.40;0.20;;;;;;;;;;4967281;28;20042;-83
2023/09/28 04:18:35;;;;;;;0.50;0.50;;;;;;;;;;4966255;28;20070;-85
2023/09/28 04:21:14;;;;;;;0.20;0.10;;;;;;;;;;4970155;28;20045;-85
2023/09/28 04:23:54;;;;;;;0.20;0.20;;;;;;;;;;4952287;28;20499;-84
2023/09/28 04:26:33;;;;;;;0.20;0.20;;;;;;;;;;4959770;28;20046;-84
2023/09/28 04:29:02;;;;;;;0.20;0.13;;;;;;;;;;4970721;28;20034;-85
2023/09/28 04:31:33;;;;;;;0.22;0.15;;;;;;;;;;4952023;28;20047;-83
2023/09/28 04:34:12;;;;;;;0.20;0.05;;;;;;;;;;4969103;28;20034;-84
2023/09/28 04:36:57;;;;;;;0.20;0.10;;;;;;;;;;4988350;28;20154;-83
2023/09/28 04:39:24;;;;;;;0.20;0.20;;;;;;;;;;4972061;28;20066;-84
2023/09/28 04:41:53;;;;;;;0.30;0.30;;;;;;;;;;4957522;28;20070;-85
2023/09/28 04:44:19;;;;;;;0.20;0.10;;;;;;;;;;4949842;28;20687;-83
2023/09/28 04:46:50;;;;;;;0.20;0.10;;;;;;;;;;4966007;28;20038;-86
2023/09/28 04:49:16;;;;;;;0.40;0.38;;;;;;;;;;4969066;28;20438;-84
2023/09/28 04:51:42;;;;;;;0.20;0.10;;;;;;;;;;4959211;28;20526;-84
2023/09/28 04:54:09;;;;;;;0.20;0.13;;;;;;;;;;4974396;28;20526;-84
2023/09/28 04:56:35;;;;;;;0.28;0.17;;;;;;;;;;4961946;28;20735;-84
2023/09/28 04:59:02;;;;;;;0.20;0.10;;;;;;;;;;4963366;28;20567;-85
2023/09/28 05:01:28;;;;;;;0.20;0.10;;;;;;;;;;4963991;28;20042;-84
2023/09/28 05:04:00;;;;;;;0.20;0.10;;;;;;;;;;4979236;28;20043;-83
2023/09/28 05:06:35;;;;;;;0.20;0.13;;;;;;;;;;4956736;28;20038;-85
2023/09/28 05:09:01;;;;;;;0.20;0.10;;;;;;;;;;4970009;28;20049;-81
2023/09/28 05:11:38;;;;;;;0.30;0.20;;;;;;;;;;4956205;28;20042;-83
2023/09/28 05:14:09;;;;;;;0.20;0.10;;;;;;;;;;4968519;28;20054;-84
2023/09/28 05:16:40;;;;;;;0.20;0.20;;;;;;;;;;4950085;28;21783;-83
2023/09/28 05:19:18;;;;;;;0.20;0.20;;;;;;;;;;4968420;28;20059;-83
2023/09/28 05:21:44;;;;;;;0.20;0.20;;;;;;;;;;4986285;28;20097;-81
2023/09/28 05:24:13;;;;;;;0.20;0.00;;;;;;;;;;4973370;28;20034;-83
2023/09/28 05:26:39;;;;;;;0.20;0.10;;;;;;;;;;4956954;28;20038;-82
2023/09/28 05:29:05;;;;;;;0.20;0.10;;;;;;;;;;4971751;28;20172;-83
2023/09/28 05:31:31;;;;;;;0.20;0.10;;;;;;;;;;4960174;28;20072;-80
2023/09/28 05:33:57;;;;;;;0.50;0.30;;;;;;;;;;4987055;28;20577;-83
2023/09/28 05:36:23;;;;;;;0.20;0.10;;;;;;;;;;4949593;28;20038;-83
2023/09/28 05:38:49;;;;;;;0.47;0.40;;;;;;;;;;4967563;28;20506;-79
2023/09/28 05:41:15;;;;;;;0.20;0.10;;;;;;;;;;4970982;28;20049;-82
2023/09/28 05:43:44;;;;;;;0.20;0.10;;;;;;;;;;4969034;28;20461;-84
2023/09/28 05:46:10;;;;;;;0.68;0.57;;;;;;;;;;4967800;28;20139;-82
2023/09/28 05:48:39;;;;;;;0.20;0.15;;;;;;;;;;4969377;28;20050;-81
2023/09/28 05:51:05;;;;;;;0.20;0.10;;;;;;;;;;4965613;28;20471;-81
2023/09/28 05:53:31;;;;;;;0.20;0.10;;;;;;;;;;4955894;28;20461;-84
2023/09/28 05:55:57;;;;;;;0.52;0.52;;;;;;;;;;4961882;28;20042;-83
2023/09/28 05:58:24;;;;;;;3.22;0.50;;;;;;;;;;4956046;28;20491;-80
2023/09/28 06:00:50;;;;;;;5.25;1.85;;;;;;;;;;4974205;28;20042;-81
2023/09/28 06:03:16;;;;;;;0.20;0.10;;;;;;;;;;4960680;28;20404;-82
2023/09/28 06:05:42;;;;;;;0.20;0.10;;;;;;;;;;4953449;28;20117;-81
2023/09/28 06:08:08;;;;;;;0.38;0.38;;;;;;;;;;4970275;28;20790;-83
2023/09/28 06:10:37;;;;;;;0.22;0.13;;;;;;;;;;4953727;28;20117;-82
2023/09/28 06:13:03;;;;;;;0.20;0.10;;;;;;;;;;4969410;28;20054;-83
2023/09/28 06:15:29;;;;;;;0.47;0.47;;;;;;;;;;4980730;28;20416;-81
2023/09/28 06:17:55;;;;;;;0.20;0.10;;;;;;;;;;4972371;28;20038;-83
2023/09/28 06:20:22;;;;;;;0.20;0.03;;;;;;;;;;4973429;28;20034;-82
2023/09/28 06:22:48;;;;;;;0.63;0.22;;;;;;;;;;4970478;28;20042;-80
2023/09/28 06:25:14;;;;;;;0.20;0.10;;;;;;;;;;4969216;28;20592;-83
2023/09/28 06:27:40;;;;;;;0.30;0.30;;;;;;;;;;4969286;28;20049;-81
2023/09/28 06:30:06;;;;;;;0.28;0.20;;;;;;;;;;4960351;28;20498;-83
2023/09/28 06:32:32;;;;;;;0.20;0.10;;;;;;;;;;4955769;28;20053;-83
2023/09/28 06:34:58;;;;;;;0.20;0.15;;;;;;;;;;4967701;28;20046;-86
2023/09/28 06:37:24;;;;;;;0.20;0.10;;;;;;;;;;4954145;28;20042;-82
2023/09/28 06:39:50;;;;;;;0.20;0.10;;;;;;;;;;4968413;28;20097;-81
2023/09/28 06:42:16;;;;;;;0.20;0.10;;;;;;;;;;4988006;28;20637;-84
2023/09/28 06:44:42;;;;;;;0.20;0.10;;;;;;;;;;4966773;28;20089;-82
2023/09/28 06:47:08;;;;;;;0.20;0.10;;;;;;;;;;4967114;28;20038;-83
2023/09/28 06:49:37;;;;;;;0.20;0.10;;;;;;;;;;4967072;28;20049;-86
2023/09/28 06:52:03;;;;;;;0.20;0.10;;;;;;;;;;4968276;28;20038;-83
2023/09/28 06:54:31;;;;;;;0.20;0.10;;;;;;;;;;4950703;28;20442;-81
2023/09/28 06:56:57;;;;;;;0.20;0.10;;;;;;;;;;4953058;28;20133;-83
2023/09/28 06:59:23;;;;;;;0.20;0.10;;;;;;;;;;4953891;28;20053;-82
2023/09/28 07:01:49;;;;;;;0.20;0.10;;;;;;;;;;4951129;28;20121;-82
2023/09/28 07:04:16;;;;;;;0.20;0.10;;;;;;;;;;4985619;28;20046;-81
2023/09/28 07:06:42;;;;;;;0.20;0.13;;;;;;;;;;4958981;28;20525;-82
2023/09/28 07:09:08;;;;;;;0.20;0.10;;;;;;;;;;4955351;28;20450;-84
2023/09/28 07:11:34;;;;;;;0.20;0.10;;;;;;;;;;4952001;28;20486;-82
2023/09/28 07:14:00;;;;;;;0.20;0.10;;;;;;;;;;4970438;28;20034;-85
2023/09/28 07:16:27;;;;;;;0.20;0.13;;;;;;;;;;4970785;28;20046;-82
2023/09/28 07:18:59;;;;;;;0.20;0.08;;;;;;;;;;4952246;28;20038;-83
2023/09/28 07:24:41;;;;;;;0.20;0.17;;;;;;;;;;4969764;28;20301;-83
2023/09/28 07:27:43;;;;;;;0.20;0.05;;;;;;;;;;4971106;28;20134;-88
2023/09/28 07:30:19;;;;;;;0.20;0.00;;;;;;;;;;4913581;28;20048;-89
2023/09/28 07:32:50;;;;;;;0.20;0.00;;;;;;;;;;4964782;28;20042;-83
2023/09/28 07:35:25;;;;;;;0.20;0.10;;;;;;;;;;4983645;28;20053;-84
2023/09/28 07:37:51;;;;;;;0.20;0.10;;;;;;;;;;4969027;28;20471;-82
2023/09/28 07:40:24;;;;;;;0.20;0.10;;;;;;;;;;4976651;28;20078;-81
2023/09/28 07:42:59;;;;;;;0.20;0.10;;;;;;;;;;4978676;28;20038;-81
2023/09/28 07:45:28;;;;;;;0.20;0.10;;;;;;;;;;4956975;28;20051;-82
2023/09/28 07:48:11;;;;;;;0.20;0.10;;;;;;;;;;4969203;28;20256;-87
2023/09/28 07:50:37;;;;;;;0.20;0.15;;;;;;;;;;4966668;28;20124;-82
2023/09/28 07:53:12;;;;;;;0.20;0.00;;;;;;;;;;4970016;28;20101;-88
2023/09/28 07:55:38;;;;;;;0.20;0.17;;;;;;;;;;4979672;28;20053;-84
2023/09/28 07:58:07;;;;;;;0.20;0.10;;;;;;;;;;4969826;28;20042;-85
2023/09/28 08:00:39;;;;;;;0.95;0.68;;;;;;;;;;4983292;28;20065;-82
2023/09/28 08:03:10;;;;;;;1.45;0.52;;;;;;;;;;4986633;28;20041;-85
2023/09/28 08:05:39;;;;;;;0.20;0.10;;;;;;;;;;4972255;28;20068;-85
2023/09/28 08:08:18;;;;;;;0.20;0.10;;;;;;;;;;4964214;28;20100;-87
2023/09/28 08:10:47;;;;;;;0.20;0.10;;;;;;;;;;4964710;28;20042;-86
2023/09/28 08:13:24;;;;;;;0.25;0.20;;;;;;;;;;4964693;28;20180;-83
2023/09/28 08:15:50;;;;;;;0.20;0.00;;;;;;;;;;4984236;28;20109;-84
2023/09/28 08:18:19;;;;;;;0.20;0.10;;;;;;;;;;4969129;28;20046;-84
2023/09/28 08:20:46;;;;;;;0.20;0.00;;;;;;;;;;4952269;28;20046;-82
2023/09/28 08:23:18;;;;;;;0.20;0.10;;;;;;;;;;4969857;28;20406;-84
2023/09/28 08:25:44;;;;;;;0.47;0.47;;;;;;;;;;4953357;28;20046;-83
2023/09/28 08:28:11;;;;;;;0.20;0.10;;;;;;;;;;4966839;28;20111;-84
2023/09/28 08:30:42;;;;;;;0.20;0.10;;;;;;;;;;4966727;28;20056;-85
2023/09/28 08:33:11;;;;;;;0.20;0.10;;;;;;;;;;4954505;28;20049;-84
2023/09/28 08:35:40;;;;;;;0.20;0.08;;;;;;;;;;4974286;28;20101;-85
2023/09/28 08:38:09;;;;;;;0.20;0.00;;;;;;;;;;4952466;28;20066;-86
2023/09/28 08:40:45;;;;;;;0.77;0.38;;;;;;;;;;4987641;28;20038;-84
2023/09/28 08:43:17;;;;;;;0.20;0.20;;;;;;;;;;4983853;28;20428;-84
2023/09/28 08:45:46;;;;;;;0.28;0.28;;;;;;;;;;4973538;28;20084;-84
2023/09/28 08:48:15;;;;;;;0.20;0.10;;;;;;;;;;4971782;28;20035;-81
2023/09/28 08:50:41;;;;;;;0.20;0.00;;;;;;;;;;4954838;28;20038;-83
2023/09/28 08:53:07;;;;;;;0.20;0.10;;;;;;;;;;4963437;28;20554;-83
2023/09/28 08:55:34;;;;;;;0.28;0.20;;;;;;;;;;4964047;28;20481;-82
2023/09/28 08:58:00;;;;;;;0.20;0.10;;;;;;;;;;4948906;28;20061;-82
2023/09/28 09:00:26;;;;;;;0.20;0.00;;;;;;;;;;4998351;23;20048;-83
2023/09/28 09:02:53;;;;;;;0.25;0.20;;;;;;;;;;5022977;28;20087;-84
2023/09/28 09:05:20;;;;;;;0.98;0.57;;;;;;;;;;5024818;28;20149;-83
2023/09/28 09:07:46;;;;;;;0.28;0.25;;;;;;;;;;5027691;28;20042;-83
2023/09/28 09:10:13;;;;;;;0.20;0.10;;;;;;;;;;5028119;28;20076;-84
2023/09/28 09:12:39;;;;;;;0.20;0.10;;;;;;;;;;5026679;28;20501;-80
2023/09/28 09:15:05;;;;;;;0.20;0.10;;;;;;;;;;5014012;28;20045;-84
2023/09/28 09:17:35;;;;;;;0.28;0.28;;;;;;;;;;5027768;28;20037;-84
2023/09/28 09:20:01;;;;;;;0.22;0.20;;;;;;;;;;5022925;28;20205;-84
2023/09/28 09:22:28;;;;;;;0.20;0.10;;;;;;;;;;5006227;28;20060;-82
2023/09/28 09:24:54;;;;;;;2.17;1.00;;;;;;;;;;5029844;28;20065;-81
2023/09/28 09:27:30;;;;;;;1.15;0.80;;;;;;;;;;5029418;28;20041;-83
2023/09/28 09:29:58;;;;;;;2.67;0.30;;;;;;;;;;5025953;28;20079;-81
2023/09/28 09:32:25;;;;;;;1.10;1.00;;;;;;;;;;5026568;28;20045;-83
2023/09/28 09:34:52;;;;;;;0.20;0.10;;;;;;;;;;5028923;28;20057;-81
2023/09/28 09:37:19;;;;;;;0.20;0.10;;;;;;;;;;5010268;28;20044;-83
2023/09/28 09:39:45;;;;;;;11.50;0.68;;;;;;;;;;5008501;28;20132;-86
2023/09/28 09:42:11;;;;;;;0.20;0.10;;;;;;;;;;5028089;28;20041;-83
2023/09/28 09:44:38;;;;;;;0.20;0.10;;;;;;;;;;5025526;28;20106;-82
2023/09/28 09:47:04;;;;;;;0.20;0.10;;;;;;;;;;5030662;28;20052;-83
2023/09/28 09:49:30;;;;;;;1.60;0.90;;;;;;;;;;5025122;28;20041;-83
2023/09/28 09:51:59;;;;;;;1.17;0.55;;;;;;;;;;5029910;28;20500;-86
2023/09/28 09:54:26;;;;;;;0.73;0.63;;;;;;;;;;5031345;28;20048;-83
2023/09/28 09:56:53;;;;;;;0.20;0.10;;;;;;;;;;5031507;28;20041;-83
2023/09/28 09:59:21;;;;;;;0.20;0.10;;;;;;;;;;5029849;28;20041;-85
2023/09/28 10:01:52;;;;;;;0.20;0.00;;;;;;;;;;5030121;28;20049;-82
2023/09/28 10:04:19;;;;;;;0.20;0.08;;;;;;;;;;5027859;28;20038;-83
2023/09/28 10:06:51;;;;;;;0.20;0.10;;;;;;;;;;5009526;28;20053;-82
2023/09/28 10:09:17;;;;;;;3.00;1.20;;;;;;;;;;5028951;28;20037;-82
2023/09/28 10:11:46;;;;;;;0.20;0.10;;;;;;;;;;5027205;28;20041;-84
2023/09/28 10:14:13;;;;;;;0.20;0.10;;;;;;;;;;5012242;28;20522;-83
2023/09/28 10:16:39;;;;;;;0.28;0.08;;;;;;;;;;5029885;28;20080;-83
2023/09/28 10:19:06;;;;;;;0.20;0.10;;;;;;;;;;5024702;28;20045;-84
2023/09/28 10:21:36;;;;;;;0.20;0.10;;;;;;;;;;5025834;28;20048;-82
2023/09/28 10:24:09;;;;;;;0.20;0.05;;;;;;;;;;5027296;28;20037;-83
2023/09/28 10:26:35;;;;;;;1.17;0.28;;;;;;;;;;5029834;28;20049;-83
2023/09/28 10:29:09;;;;;;;1.80;0.85;;;;;;;;;;5011995;28;20521;-83
2023/09/28 10:31:39;;;;;;;0.68;0.68;;;;;;;;;;5028729;28;20041;-82
2023/09/28 10:34:06;;;;;;;0.68;0.55;;;;;;;;;;5013103;28;20124;-84
2023/09/28 10:36:32;;;;;;;0.20;0.17;;;;;;;;;;5029281;28;20509;-83
2023/09/28 10:39:17;;;;;;;0.65;0.65;;;;;;;;;;5029230;28;20167;-83
2023/09/28 10:41:50;;;;;;;0.45;0.28;;;;;;;;;;5028734;28;20040;-83
2023/09/28 10:44:17;;;;;;;0.20;0.17;;;;;;;;;;5028207;28;20493;-81
2023/09/28 10:46:43;;;;;;;2.28;1.05;;;;;;;;;;5029267;28;20045;-81
2023/09/28 10:49:12;;;;;;;0.20;0.10;;;;;;;;;;5012396;28;20347;-79
2023/09/28 10:51:39;;;;;;;0.20;0.10;;;;;;;;;;5027359;28;20048;-81
2023/09/28 10:54:06;;;;;;;0.40;0.35;;;;;;;;;;5029555;28;20091;-81
2023/09/28 10:56:32;;;;;;;0.20;0.17;;;;;;;;;;5027945;28;20041;-82
2023/09/28 10:59:00;;;;;;;0.20;0.05;;;;;;;;;;5028236;28;20033;-85
2023/09/28 11:01:26;;;;;;;0.20;0.10;;;;;;;;;;5022107;28;20090;-80
2023/09/28 11:03:54;;;;;;;0.20;0.20;;;;;;;;;;5010284;28;20040;-85
2023/09/28 11:06:21;;;;;;;0.25;0.25;;;;;;;;;;5012907;28;20042;-84
2023/09/28 11:08:47;;;;;;;1.85;1.33;;;;;;;;;;5028893;28;20041;-81
2023/09/28 11:11:14;;;;;;;0.75;0.65;;;;;;;;;;5012926;28;20064;-84
2023/09/28 11:13:40;;;;;;;0.30;0.10;;;;;;;;;;5023774;28;20049;-83
2023/09/28 11:16:07;;;;;;;0.20;0.10;;;;;;;;;;5028817;28;20049;-85
2023/09/28 11:18:33;;;;;;;1.00;0.90;;;;;;;;;;5025018;28;20069;-84
2023/09/28 11:21:01;;;;;;;0.38;0.20;;;;;;;;;;5028433;28;20096;-85
2023/09/28 11:23:28;;;;;;;1.88;0.20;;;;;;;;;;5031297;28;20358;-84
2023/09/28 11:25:54;;;;;;;0.20;0.00;;;;;;;;;;5027495;28;20124;-85
2023/09/28 11:28:21;;;;;;;0.20;0.10;;;;;;;;;;5024757;28;20042;-83
2023/09/28 11:31:03;;;;;;;0.20;0.10;;;;;;;;;;5028450;28;20042;-84
2023/09/28 11:33:29;;;;;;;0.30;0.20;;;;;;;;;;5024837;28;20045;-83
2023/09/28 11:35:55;;;;;;;0.20;0.20;;;;;;;;;;5030862;28;20045;-85
2023/09/28 11:38:21;;;;;;;0.35;0.35;;;;;;;;;;5027660;28;20064;-82
2023/09/28 11:40:48;;;;;;;0.20;0.00;;;;;;;;;;5029171;28;20042;-81
2023/09/28 11:43:15;;;;;;;1.05;0.35;;;;;;;;;;5026787;28;20049;-84
2023/09/28 11:45:42;;;;;;;1.60;0.82;;;;;;;;;;5031208;28;20580;-83
2023/09/28 11:48:12;;;;;;;0.20;0.10;;;;;;;;;;5029131;28;20072;-84
2023/09/28 11:50:38;;;;;;;0.20;0.10;;;;;;;;;;5028919;28;20044;-84
2023/09/28 11:53:10;;;;;;;0.20;0.03;;;;;;;;;;5012603;28;20037;-84
2023/09/28 11:55:36;;;;;;;0.30;0.30;;;;;;;;;;5029397;28;20124;-84
2023/09/28 11:58:02;;;;;;;0.30;0.30;;;;;;;;;;5010677;28;20029;-86
2023/09/28 12:00:30;;;;;;;4.45;1.67;;;;;;;;;;5030747;28;20041;-83
2023/09/28 12:02:56;;;;;;;0.75;0.75;;;;;;;;;;5045210;28;20041;-83
2023/09/28 12:05:23;;;;;;;0.80;0.32;;;;;;;;;;5025881;28;20042;-84
2023/09/28 12:07:49;;;;;;;0.55;0.55;;;;;;;;;;5023786;28;20041;-81
2023/09/28 12:10:15;;;;;;;0.25;0.25;;;;;;;;;;5025341;28;20037;-85
2023/09/28 12:12:41;;;;;;;0.20;0.00;;;;;;;;;;5005195;28;20110;-84
2023/09/28 12:15:10;;;;;;;0.35;0.17;;;;;;;;;;5008983;28;20559;-84
2023/09/28 12:17:40;;;;;;;0.20;0.10;;;;;;;;;;5024854;28;20041;-83
2023/09/28 12:20:12;;;;;;;0.20;0.17;;;;;;;;;;5026707;28;20489;-84
2023/09/28 12:22:50;;;;;;;0.32;0.32;;;;;;;;;;5024539;28;20523;-83
2023/09/28 12:25:19;;;;;;;1.27;0.95;;;;;;;;;;5025693;28;20448;-85
2023/09/28 12:27:46;;;;;;;0.57;0.32;;;;;;;;;;5024105;28;20045;-83
2023/09/28 12:30:18;;;;;;;0.20;0.10;;;;;;;;;;5023218;28;20049;-84
2023/09/28 12:32:45;;;;;;;0.20;0.00;;;;;;;;;;5023411;28;20553;-84
2023/09/28 12:35:11;;;;;;;0.20;0.10;;;;;;;;;;5025262;28;20076;-83
2023/09/28 12:37:38;;;;;;;0.20;0.10;;;;;;;;;;5026969;28;20053;-83
2023/09/28 12:40:04;;;;;;;0.63;0.45;;;;;;;;;;5026719;28;20033;-84
2023/09/28 12:42:30;;;;;;;0.40;0.40;;;;;;;;;;5025392;28;20073;-84
2023/09/28 12:44:58;;;;;;;0.50;0.45;;;;;;;;;;5026372;28;20089;-83
2023/09/28 12:47:25;;;;;;;0.20;0.00;;;;;;;;;;5020787;28;20050;-85
2023/09/28 12:49:51;;;;;;;0.20;0.10;;;;;;;;;;5024837;28;20110;-83
2023/09/28 12:52:17;;;;;;;0.20;0.10;;;;;;;;;;5026062;28;20041;-83
2023/09/28 12:54:46;;;;;;;0.30;0.20;;;;;;;;;;5025930;28;20109;-85
2023/09/28 12:57:12;;;;;;;0.40;0.35;;;;;;;;;;5025951;28;20046;-83
2023/09/28 12:59:39;;;;;;;0.20;0.15;;;;;;;;;;5009221;28;20080;-84
2023/09/28 13:02:05;;;;;;;0.20;0.10;;;;;;;;;;5025288;28;20037;-84
2023/09/28 13:04:32;;;;;;;0.20;0.00;;;;;;;;;;5006688;28;20033;-84
2023/09/28 13:06:58;;;;;;;0.30;0.30;;;;;;;;;;5025645;28;20124;-85
2023/09/28 13:09:29;;;;;;;0.20;0.20;;;;;;;;;;5021065;28;20048;-83
2023/09/28 13:11:55;;;;;;;0.20;0.10;;;;;;;;;;5022707;28;20041;-86
2023/09/28 13:14:25;;;;;;;0.20;0.10;;;;;;;;;;5023505;28;20037;-84
2023/09/28 13:16:52;;;;;;;0.20;0.00;;;;;;;;;;5024436;28;20245;-83
2023/09/28 13:19:18;;;;;;;0.35;0.30;;;;;;;;;;5024099;28;20401;-83
2023/09/28 13:21:46;;;;;;;0.20;0.10;;;;;;;;;;5009186;28;20065;-83
2023/09/28 13:24:13;;;;;;;0.55;0.55;;;;;;;;;;5029771;28;20122;-85
2023/09/28 13:26:39;;;;;;;0.20;0.10;;;;;;;;;;5027269;28;20053;-84
2023/09/28 13:29:05;;;;;;;0.30;0.13;;;;;;;;;;5012266;28;20038;-86
2023/09/28 13:31:31;;;;;;;0.20;0.10;;;;;;;;;;5028288;28;20087;-85
2023/09/28 13:33:59;;;;;;;0.20;0.10;;;;;;;;;;5020218;28;20048;-85
2023/09/28 13:36:25;;;;;;;0.20;0.20;;;;;;;;;;5027430;28;20045;-84
2023/09/28 13:38:51;;;;;;;0.43;0.40;;;;;;;;;;5028945;28;20135;-84
2023/09/28 13:41:17;;;;;;;0.20;0.00;;;;;;;;;;5026402;28;20041;-86
2023/09/28 13:43:44;;;;;;;0.20;0.10;;;;;;;;;;5023702;28;20037;-85
2023/09/28 13:46:10;;;;;;;0.20;0.10;;;;;;;;;;5028965;28;20124;-87
2023/09/28 13:48:36;;;;;;;2.05;0.57;;;;;;;;;;5026026;28;20038;-87
2023/09/28 13:51:02;;;;;;;0.20;0.10;;;;;;;;;;5029153;28;20045;-84
2023/09/28 13:53:29;;;;;;;1.45;0.63;;;;;;;;;;5028495;28;20052;-84
2023/09/28 13:55:58;;;;;;;0.50;0.25;;;;;;;;;;5029203;28;20476;-86
2023/09/28 13:58:24;;;;;;;7.68;0.90;;;;;;;;;;5004767;28;20033;-84
2023/09/28 14:00:53;;;;;;;0.20;0.10;;;;;;;;;;5025440;28;20065;-86
2023/09/28 14:03:19;;;;;;;0.30;0.30;;;;;;;;;;5025965;28;20117;-82
2023/09/28 14:05:50;;;;;;;0.30;0.30;;;;;;;;;;5006743;28;20067;-83
2023/09/28 14:08:16;;;;;;;0.20;0.10;;;;;;;;;;5025834;28;20493;-82
2023/09/28 14:10:42;;;;;;;0.20;0.10;;;;;;;;;;5027228;28;20053;-84
2023/09/28 14:13:08;;;;;;;2.38;1.10;;;;;;;;;;5026000;28;20072;-85
2023/09/28 14:15:36;;;;;;;0.20;0.13;;;;;;;;;;5026493;28;20080;-85
2023/09/28 14:18:02;;;;;;;0.50;0.30;;;;;;;;;;5019717;28;21081;-87
2023/09/28 14:20:28;;;;;;;0.20;0.20;;;;;;;;;;5024609;28;20039;-85
2023/09/28 14:22:57;;;;;;;0.25;0.22;;;;;;;;;;5026168;28;20088;-87
2023/09/28 14:25:23;;;;;;;0.20;0.10;;;;;;;;;;5025038;28;20037;-85
2023/09/28 14:27:50;;;;;;;0.20;0.03;;;;;;;;;;5028431;28;20571;-83
2023/09/28 14:30:16;;;;;;;1.45;0.47;;;;;;;;;;5011892;28;20269;-87
2023/09/28 14:32:43;;;;;;;0.20;0.10;;;;;;;;;;5027026;28;20516;-84
2023/09/28 14:35:11;;;;;;;0.20;0.10;;;;;;;;;;5018406;28;20056;-84
2023/09/28 14:37:37;;;;;;;0.30;0.30;;;;;;;;;;5010351;28;20492;-84
2023/09/28 14:40:04;;;;;;;1.08;0.57;;;;;;;;;;5024673;28;20075;-87
2023/09/28 14:42:34;;;;;;;0.30;0.15;;;;;;;;;;5009379;28;20092;-86
2023/09/28 14:45:01;;;;;;;0.40;0.40;;;;;;;;;;5008369;28;20069;-89
2023/09/28 14:47:31;;;;;;;0.20;0.10;;;;;;;;;;5024612;28;20053;-85
2023/09/28 14:50:02;;;;;;;0.20;0.10;;;;;;;;;;5028672;28;20045;-84
2023/09/28 14:52:29;;;;;;;0.20;0.17;;;;;;;;;;5027103;28;20049;-87
2023/09/28 14:54:55;;;;;;;0.20;0.03;;;;;;;;;;5027767;28;20046;-85